createdAt,value
2018-10-02T00:01:14.277Z,5.97
2018-10-02T00:11:23.039Z,6.67
2018-10-02T00:21:26.416Z,5.53
2018-10-02T00:31:29.789Z,5.67
2018-10-02T00:41:33.085Z,7.27
2018-10-02T00:51:40.899Z,6.03
2018-10-02T01:01:44.292Z,8.33
2018-10-02T01:11:47.747Z,9.87
2018-10-02T01:21:51.640Z,8.03
2018-10-02T01:31:54.991Z,7.40
2018-10-02T01:41:58.893Z,9.53
2018-10-02T01:52:03.045Z,8.00
2018-10-02T02:02:06.502Z,8.23
2018-10-02T02:12:10.563Z,7.80
2018-10-02T02:22:14.005Z,5.77
2018-10-02T02:32:21.510Z,7.17
2018-10-02T02:42:25.580Z,6.53
2018-10-02T02:52:33.150Z,2.97
2018-10-02T03:02:36.833Z,9.37
2018-10-02T03:12:41.093Z,7.23
2018-10-02T03:22:45.177Z,6.47
2018-10-02T03:32:48.659Z,6.10
2018-10-02T03:42:52.142Z,7.03
2018-10-02T03:52:55.522Z,5.83
2018-10-02T04:02:59.003Z,11.80
2018-10-02T04:13:03.087Z,7.33
2018-10-02T04:23:06.486Z,6.73
2018-10-02T04:33:10.578Z,6.70
2018-10-02T04:43:15.225Z,5.10
2018-10-02T04:53:18.578Z,7.40
2018-10-02T05:03:22.052Z,5.43
2018-10-02T05:13:26.448Z,9.47
2018-10-02T05:23:29.806Z,7.27
2018-10-02T05:33:33.186Z,8.00
2018-10-02T05:43:36.572Z,8.30
2018-10-02T05:53:39.904Z,6.20
2018-10-02T06:03:47.644Z,6.73
2018-10-02T06:13:55.002Z,7.40
2018-10-02T06:23:59.222Z,8.07
2018-10-02T06:34:03.053Z,10.37
2018-10-02T06:44:10.806Z,8.68
2018-10-02T06:54:14.772Z,6.07
2018-10-02T07:04:18.143Z,5.57
2018-10-02T07:14:21.531Z,3.77
2018-10-02T07:24:25.032Z,5.20
2018-10-02T07:34:34.308Z,6.60
2018-10-02T07:44:38.196Z,4.70
2018-10-02T07:54:41.649Z,10.27
2018-10-02T08:04:46.001Z,10.37
2018-10-02T08:14:49.347Z,7.80
2018-10-02T08:24:52.668Z,9.23
2018-10-02T08:34:56.089Z,8.00
2018-10-02T08:44:59.684Z,5.83
2018-10-02T08:55:03.083Z,9.30
2018-10-02T09:05:06.450Z,6.77
2018-10-02T09:15:12.323Z,6.20
2018-10-02T09:25:13.242Z,7.77
2018-10-02T09:35:21.981Z,10.13
2018-10-02T09:45:25.895Z,6.07
2018-10-02T09:55:29.354Z,6.33
2018-10-02T10:05:40.853Z,6.63
2018-10-02T10:15:44.200Z,5.90
2018-10-02T10:25:48.822Z,5.50
2018-10-02T10:35:52.214Z,4.97
2018-10-02T10:45:56.096Z,5.70
2018-10-02T10:55:59.479Z,6.23
2018-10-02T11:06:06.954Z,7.00
2018-10-02T11:16:10.295Z,6.43
2018-10-02T11:26:13.663Z,6.73
2018-10-02T11:36:17.700Z,7.33
2018-10-02T11:46:21.572Z,7.80
2018-10-02T11:56:24.940Z,8.07
2018-10-02T12:06:28.277Z,9.43
2018-10-02T12:16:31.610Z,9.47
2018-10-02T12:26:35.782Z,8.03
2018-10-02T12:36:39.144Z,7.00
2018-10-02T12:46:42.681Z,8.40
2018-10-02T12:56:46.789Z,9.17
2018-10-02T13:06:50.945Z,9.93
2018-10-02T13:16:54.248Z,11.03
2018-10-02T13:26:57.657Z,13.17
2018-10-02T13:37:00.995Z,15.77
2018-10-02T13:47:09.193Z,17.17
2018-10-02T13:57:13.379Z,16.77
2018-10-02T14:07:20.560Z,16.80
2018-10-02T14:17:23.906Z,16.67
2018-10-02T14:27:27.256Z,15.27
2018-10-02T14:37:30.715Z,14.10
2018-10-02T14:47:34.113Z,13.77
2018-10-02T14:57:38.668Z,13.17
2018-10-02T15:07:42.015Z,9.97
2018-10-02T15:17:45.448Z,10.13
2018-10-02T15:27:48.807Z,9.07
2018-10-02T15:37:52.405Z,8.27
2018-10-02T15:47:55.728Z,7.27
2018-10-02T15:57:59.168Z,4.50
2018-10-02T16:08:02.687Z,5.60
2018-10-02T16:18:06.149Z,4.20
2018-10-02T16:28:09.366Z,6.17
2018-10-02T16:38:12.703Z,4.03
2018-10-02T16:48:16.066Z,6.77
2018-10-02T16:58:19.494Z,8.33
2018-10-02T17:08:23.040Z,11.00
2018-10-02T17:18:38.615Z,7.03
2018-10-02T17:28:41.995Z,5.50
2018-10-02T17:38:57.911Z,5.10
2018-10-02T17:49:01.672Z,8.83
2018-10-02T17:59:05.124Z,8.20
2018-10-02T18:09:09.163Z,8.33
2018-10-02T18:19:19.380Z,6.80
2018-10-02T18:29:22.799Z,8.43
2018-10-02T18:39:31.857Z,6.30
2018-10-02T18:49:36.708Z,8.00
2018-10-02T18:59:40.234Z,7.93
2018-10-02T19:09:43.699Z,8.67
2018-10-02T19:19:52.506Z,8.43
2018-10-02T19:30:06.960Z,8.47
2018-10-02T19:40:10.323Z,6.60
2018-10-02T19:50:14.916Z,6.60
2018-10-02T20:00:19.718Z,7.87
2018-10-02T20:10:23.849Z,9.17
2018-10-02T20:20:27.301Z,8.50
2018-10-02T20:30:35.216Z,10.90
2018-10-02T20:40:38.629Z,6.00
2018-10-02T20:50:41.963Z,7.10
2018-10-02T21:00:51.076Z,8.27
2018-10-02T21:10:55.180Z,6.57
2018-10-02T21:20:58.475Z,9.60
2018-10-02T21:31:02.452Z,9.90
2018-10-02T21:41:05.801Z,10.80
2018-10-02T21:51:09.670Z,8.37
2018-10-02T22:01:13.031Z,9.73
2018-10-02T22:11:21.472Z,10.63
2018-10-02T22:21:24.849Z,9.23
2018-10-02T22:31:28.699Z,9.87
2018-10-02T22:41:32.030Z,7.60
2018-10-02T22:51:35.392Z,9.33
2018-10-02T23:01:38.728Z,12.37
2018-10-02T23:11:42.156Z,9.97
2018-10-02T23:21:47.289Z,10.00
2018-10-02T23:31:50.653Z,8.40
2018-10-02T23:41:54.013Z,10.27
2018-10-02T23:51:57.341Z,8.27
